Time;durP1;ratioP1;P1;durP2;ratioP2;P2;SDS_P1;SDS_P2;PMS_P1;PMS_P2;Temp;Humidity;BMP_temperature;BMP_pressure;BME280_temperature;BME280_humidity;BME280_pressure;Samples;Min_cycle;Max_cycle;Signal;HPM_P1;HPM_P2
2023/09/16 00:01:36;;;;;;;0.40;0.20;;;;;;;16.03;100.00;100067.50;5008814;28;20461;-48
2023/09/16 00:04:03;;;;;;;0.40;0.20;;;;;;;16.08;100.00;100068.13;5009748;28;20435;-48
2023/09/16 00:06:30;;;;;;;0.40;0.20;;;;;;;15.97;100.00;100063.34;5007322;28;20823;-47
2023/09/16 00:08:56;;;;;;;0.40;0.20;;;;;;;16.03;100.00;100054.09;5001824;28;20564;-47
2023/09/16 00:11:23;;;;;;;0.40;0.20;;;;;;;15.99;100.00;100054.28;5003402;28;20499;-47
2023/09/16 00:13:49;;;;;;;0.40;0.20;;;;;;;15.91;100.00;100058.34;5008260;28;21074;-48
2023/09/16 00:16:16;;;;;;;0.50;0.20;;;;;;;15.97;100.00;100066.03;5006962;28;20882;-47
2023/09/16 00:18:43;;;;;;;0.40;0.20;;;;;;;16.04;100.00;100067.44;5001166;28;20800;-47
2023/09/16 00:21:10;;;;;;;0.40;0.20;;;;;;;16.02;100.00;100068.44;5012717;28;20981;-47
2023/09/16 00:23:38;;;;;;;0.40;0.20;;;;;;;16.00;100.00;100061.34;5009781;28;20448;-47
2023/09/16 00:26:04;;;;;;;0.40;0.20;;;;;;;15.78;100.00;100050.09;5007045;28;20459;-47
2023/09/16 00:28:32;;;;;;;0.40;0.20;;;;;;;15.85;100.00;100048.78;5001421;28;20913;-47
2023/09/16 00:31:00;;;;;;;0.40;0.20;;;;;;;15.83;100.00;100047.16;5002315;28;20449;-47
2023/09/16 00:33:28;;;;;;;0.40;0.30;;;;;;;15.83;100.00;100041.78;5007777;28;20492;-48
2023/09/16 00:35:54;;;;;;;0.40;0.20;;;;;;;15.89;100.00;100042.31;5008236;28;20464;-47
2023/09/16 00:38:21;;;;;;;0.40;0.20;;;;;;;15.89;100.00;100045.00;5001712;28;20547;-47
2023/09/16 00:40:47;;;;;;;0.40;0.20;;;;;;;15.96;100.00;100046.41;5010993;28;20560;-47
2023/09/16 00:43:14;;;;;;;0.40;0.20;;;;;;;16.05;100.00;100045.03;4999653;28;20856;-47
2023/09/16 00:45:41;;;;;;;0.40;0.20;;;;;;;15.91;100.00;100051.16;5001297;28;20453;-50
2023/09/16 00:48:11;;;;;;;0.40;0.20;;;;;;;15.89;100.00;100044.13;5001466;28;20563;-47
2023/09/16 00:50:38;;;;;;;0.40;0.20;;;;;;;15.88;100.00;100045.94;5005718;28;20619;-47
2023/09/16 00:53:05;;;;;;;0.40;0.20;;;;;;;15.87;100.00;100046.03;5006914;28;20495;-47
2023/09/16 00:55:31;;;;;;;0.40;0.20;;;;;;;15.84;100.00;100038.16;5017292;28;20455;-47
2023/09/16 00:57:58;;;;;;;0.40;0.20;;;;;;;15.65;100.00;100033.81;5013679;28;20545;-47
2023/09/16 01:00:26;;;;;;;0.40;0.20;;;;;;;15.61;100.00;100042.06;5000819;28;20476;-48
2023/09/16 01:02:54;;;;;;;0.40;0.20;;;;;;;15.80;100.00;100033.91;5013990;28;20452;-47
2023/09/16 01:05:21;;;;;;;0.40;0.20;;;;;;;15.74;100.00;100034.22;5000969;28;20454;-47
2023/09/16 01:07:49;;;;;;;0.40;0.20;;;;;;;15.56;100.00;100041.41;5004602;28;20461;-47
2023/09/16 01:10:20;;;;;;;0.40;0.20;;;;;;;15.60;100.00;100041.19;5007316;28;20852;-47
2023/09/16 01:12:49;;;;;;;0.40;0.20;;;;;;;15.49;100.00;100046.25;4998932;28;20490;-47
2023/09/16 01:15:18;;;;;;;0.40;0.20;;;;;;;15.41;100.00;100043.09;5007141;28;20931;-49
2023/09/16 01:18:04;;;;;;;0.40;0.20;;;;;;;15.29;100.00;100041.91;5005632;28;20484;-47
2023/09/16 01:20:31;;;;;;;0.40;0.20;;;;;;;15.33;100.00;100043.47;5001382;28;20475;-47
2023/09/16 01:22:58;;;;;;;0.40;0.20;;;;;;;15.30;100.00;100050.81;5012844;28;20476;-47
2023/09/16 01:25:26;;;;;;;0.40;0.20;;;;;;;15.31;100.00;100045.38;5001467;28;20511;-48
2023/09/16 01:27:53;;;;;;;0.40;0.20;;;;;;;15.48;100.00;100039.13;5000158;28;20561;-48
2023/09/16 01:30:19;;;;;;;0.40;0.20;;;;;;;15.43;100.00;100040.34;5005672;28;20477;-47
2023/09/16 01:32:52;;;;;;;0.40;0.20;;;;;;;15.50;100.00;100039.94;5006688;28;20491;-47
2023/09/16 01:35:21;;;;;;;0.40;0.20;;;;;;;15.53;100.00;100045.13;5003002;28;20479;-47
2023/09/16 01:37:50;;;;;;;0.40;0.20;;;;;;;15.56;100.00;100042.28;5000380;28;20463;-47
2023/09/16 01:40:19;;;;;;;0.40;0.20;;;;;;;15.50;100.00;100042.63;5003018;28;20477;-47
2023/09/16 01:42:45;;;;;;;0.40;0.20;;;;;;;15.49;100.00;100042.69;5006706;28;20480;-48
2023/09/16 01:45:12;;;;;;;0.40;0.20;;;;;;;15.17;100.00;100039.00;5004361;28;20465;-47
2023/09/16 01:47:38;;;;;;;0.40;0.20;;;;;;;15.29;100.00;100038.38;4999976;28;20456;-47
2023/09/16 01:50:05;;;;;;;0.40;0.20;;;;;;;15.06;100.00;100050.25;5004177;28;20481;-47
2023/09/16 01:52:32;;;;;;;0.40;0.20;;;;;;;15.13;100.00;100042.78;5009098;28;20489;-47
2023/09/16 01:54:58;;;;;;;0.40;0.20;;;;;;;15.05;100.00;100049.41;5011779;28;20510;-47
2023/09/16 01:57:25;;;;;;;0.40;0.20;;;;;;;15.12;100.00;100047.28;5009412;28;20457;-47
2023/09/16 01:59:52;;;;;;;0.40;0.20;;;;;;;15.15;100.00;100046.25;5003030;28;20483;-47
2023/09/16 02:02:19;;;;;;;0.40;0.20;;;;;;;15.03;100.00;100051.28;5006995;28;20463;-47
2023/09/16 02:04:45;;;;;;;0.40;0.20;;;;;;;15.11;100.00;100046.41;5001652;28;20454;-48
2023/09/16 02:07:12;;;;;;;0.40;0.20;;;;;;;15.05;100.00;100056.56;5008094;28;20450;-48
2023/09/16 02:09:40;;;;;;;0.40;0.20;;;;;;;15.07;100.00;100047.50;5001311;28;20819;-48
2023/09/16 02:12:06;;;;;;;0.40;0.20;;;;;;;14.94;100.00;100054.44;5006642;28;20453;-48
2023/09/16 02:14:37;;;;;;;0.40;0.20;;;;;;;15.03;100.00;100056.63;5005006;28;20459;-47
2023/09/16 02:17:07;;;;;;;0.40;0.20;;;;;;;14.96;100.00;100060.59;4999816;28;20447;-47
2023/09/16 02:19:33;;;;;;;0.40;0.20;;;;;;;15.06;100.00;100063.63;4999672;28;20998;-47
2023/09/16 02:21:59;;;;;;;0.40;0.20;;;;;;;14.71;100.00;100066.28;5012598;28;20543;-47
2023/09/16 02:24:26;;;;;;;0.40;0.20;;;;;;;14.68;100.00;100070.94;4999814;28;20449;-47
2023/09/16 02:26:53;;;;;;;0.40;0.20;;;;;;;14.77;100.00;100073.13;4999728;28;20484;-47
2023/09/16 02:29:19;;;;;;;0.40;0.20;;;;;;;14.68;100.00;100078.97;4999571;28;20979;-47
2023/09/16 02:31:46;;;;;;;0.40;0.20;;;;;;;14.77;100.00;100067.78;4999340;28;20503;-47
2023/09/16 02:34:12;;;;;;;0.40;0.20;;;;;;;14.69;100.00;100070.84;4999447;28;20870;-48
2023/09/16 02:36:39;;;;;;;0.40;0.20;;;;;;;14.67;100.00;100071.88;5005720;28;20905;-47
2023/09/16 02:39:05;;;;;;;0.40;0.20;;;;;;;14.59;100.00;100074.91;5006125;28;20530;-48
2023/09/16 02:41:31;;;;;;;0.40;0.20;;;;;;;14.61;100.00;100078.38;4999466;28;20939;-47
2023/09/16 02:43:58;;;;;;;0.40;0.20;;;;;;;14.08;100.00;100073.72;5002095;28;20446;-50
2023/09/16 02:46:24;;;;;;;0.40;0.20;;;;;;;14.40;100.00;100064.22;5003474;28;20482;-47
2023/09/16 02:48:51;;;;;;;0.40;0.20;;;;;;;14.41;100.00;100068.63;5008633;28;20538;-47
2023/09/16 02:51:18;;;;;;;0.40;0.20;;;;;;;14.45;100.00;100066.69;5013869;28;20640;-47
2023/09/16 02:53:44;;;;;;;0.40;0.20;;;;;;;14.50;100.00;100070.00;5004928;28;20511;-47
2023/09/16 02:56:11;;;;;;;0.40;0.20;;;;;;;14.37;100.00;100074.16;5021640;28;20928;-48
2023/09/16 02:58:37;;;;;;;0.40;0.20;;;;;;;14.45;100.00;100062.19;5015080;28;20456;-47
2023/09/16 03:01:10;;;;;;;0.40;0.20;;;;;;;14.41;100.00;100059.72;5004227;28;20458;-48
2023/09/16 03:03:37;;;;;;;0.40;0.20;;;;;;;14.32;100.00;100068.19;5013670;28;20519;-48
2023/09/16 03:06:04;;;;;;;0.40;0.20;;;;;;;14.45;100.00;100059.53;5004481;28;20452;-48
2023/09/16 03:08:30;;;;;;;0.40;0.20;;;;;;;14.33;100.00;100061.88;5008247;28;20457;-47
2023/09/16 03:11:04;;;;;;;0.40;0.20;;;;;;;14.47;100.00;100059.44;5005941;28;20452;-47
2023/09/16 03:13:31;;;;;;;0.40;0.20;;;;;;;14.61;100.00;100058.78;5001597;28;20567;-47
2023/09/16 03:16:20;;;;;;;0.40;0.20;;;;;;;14.61;100.00;100066.81;5004491;28;20827;-47
2023/09/16 03:18:49;;;;;;;0.40;0.20;;;;;;;14.51;100.00;100066.38;5003400;28;20456;-47
2023/09/16 03:21:17;;;;;;;0.40;0.20;;;;;;;14.37;100.00;100064.31;5012338;28;20457;-47
2023/09/16 03:23:45;;;;;;;0.40;0.20;;;;;;;14.20;100.00;100069.63;5008183;28;20456;-47
2023/09/16 03:26:12;;;;;;;0.40;0.20;;;;;;;14.36;100.00;100056.38;5009371;28;20539;-48
2023/09/16 03:28:45;;;;;;;0.40;0.20;;;;;;;14.33;100.00;100067.22;5004437;28;20452;-47
2023/09/16 03:31:12;;;;;;;0.40;0.20;;;;;;;14.34;100.00;100061.81;5011712;28;20456;-47
2023/09/16 03:33:39;;;;;;;0.40;0.20;;;;;;;14.41;100.00;100051.69;5005323;28;20495;-47
2023/09/16 03:36:06;;;;;;;0.40;0.20;;;;;;;14.27;100.00;100057.72;5002351;28;20491;-47
2023/09/16 03:38:34;;;;;;;0.40;0.20;;;;;;;14.33;100.00;100051.19;5006040;28;20449;-47
2023/09/16 03:41:01;;;;;;;0.40;0.20;;;;;;;14.38;100.00;100041.13;5008539;28;20468;-48
2023/09/16 03:43:27;;;;;;;0.40;0.20;;;;;;;14.36;100.00;100051.91;5005832;28;20451;-47
2023/09/16 03:45:54;;;;;;;0.40;0.20;;;;;;;14.31;100.00;100045.91;5002407;28;20539;-47
2023/09/16 03:48:20;;;;;;;0.40;0.20;;;;;;;14.40;100.00;100044.63;5005307;28;20449;-47
2023/09/16 03:50:47;;;;;;;0.40;0.20;;;;;;;14.33;100.00;100044.03;5010005;28;20981;-48
2023/09/16 03:53:13;;;;;;;0.40;0.20;;;;;;;14.41;100.00;100041.00;5004777;28;20488;-48
2023/09/16 03:55:42;;;;;;;0.40;0.20;;;;;;;14.39;100.00;100042.84;5018539;28;20954;-47
2023/09/16 03:58:08;;;;;;;0.40;0.20;;;;;;;14.34;100.00;100052.91;5006872;28;20483;-47
2023/09/16 04:00:35;;;;;;;0.40;0.20;;;;;;;14.25;100.00;100051.53;5002107;28;20469;-47
2023/09/16 04:03:01;;;;;;;0.50;0.50;;;;;;;14.14;100.00;100052.06;5015070;28;20460;-47
2023/09/16 04:05:28;;;;;;;0.40;0.20;;;;;;;14.10;100.00;100049.59;5001659;28;20460;-47
2023/09/16 04:07:54;;;;;;;0.40;0.20;;;;;;;14.00;100.00;100053.66;5004437;28;20545;-48
2023/09/16 04:10:21;;;;;;;0.40;0.20;;;;;;;13.99;100.00;100049.25;5008241;28;20473;-47
2023/09/16 04:12:47;;;;;;;0.40;0.20;;;;;;;14.01;100.00;100042.91;5005917;28;20452;-47
2023/09/16 04:15:16;;;;;;;0.40;0.20;;;;;;;13.96;100.00;100046.69;5011058;28;20461;-47
2023/09/16 04:17:43;;;;;;;0.40;0.20;;;;;;;14.08;100.00;100046.13;5003855;28;20557;-47
2023/09/16 04:20:10;;;;;;;0.40;0.20;;;;;;;14.08;100.00;100041.66;5009362;28;20473;-47
2023/09/16 04:22:36;;;;;;;0.40;0.20;;;;;;;14.04;100.00;100039.19;5014784;28;20535;-48
2023/09/16 04:25:03;;;;;;;0.40;0.20;;;;;;;14.06;100.00;100034.66;5001389;28;20472;-47
2023/09/16 04:27:29;;;;;;;0.40;0.20;;;;;;;13.97;100.00;100037.75;5003214;28;20540;-47
2023/09/16 04:29:56;;;;;;;0.40;0.20;;;;;;;14.08;100.00;100038.09;5008454;28;20500;-47
2023/09/16 04:32:22;;;;;;;0.40;0.20;;;;;;;14.00;100.00;100042.97;5006579;28;20972;-47
2023/09/16 04:34:49;;;;;;;0.40;0.20;;;;;;;13.92;100.00;100035.28;5008747;28;20485;-47
2023/09/16 04:37:16;;;;;;;0.40;0.20;;;;;;;13.96;100.00;100044.03;5006502;28;20938;-47
2023/09/16 04:39:42;;;;;;;0.40;0.20;;;;;;;13.77;100.00;100036.00;5001016;28;20499;-46
2023/09/16 04:42:09;;;;;;;0.40;0.20;;;;;;;13.77;100.00;100036.00;5001463;28;20453;-47
2023/09/16 04:44:38;;;;;;;0.40;0.20;;;;;;;13.74;100.00;100036.16;5007943;28;20456;-47
2023/09/16 04:47:10;;;;;;;0.40;0.20;;;;;;;13.54;100.00;100032.56;5007370;28;20483;-47
2023/09/16 04:49:36;;;;;;;0.40;0.20;;;;;;;13.56;100.00;100033.34;5001298;28;20465;-47
2023/09/16 04:52:06;;;;;;;0.40;0.20;;;;;;;13.73;100.00;100027.28;5014086;28;20445;-48
2023/09/16 04:54:33;;;;;;;0.40;0.20;;;;;;;13.75;100.00;100019.19;5021655;28;20519;-46
2023/09/16 04:57:01;;;;;;;0.40;0.20;;;;;;;13.62;100.00;100017.06;5007457;28;20461;-46
2023/09/16 04:59:32;;;;;;;0.40;0.20;;;;;;;13.58;100.00;100023.50;5002404;28;20538;-47
2023/09/16 05:01:59;;;;;;;0.40;0.20;;;;;;;13.55;100.00;100030.75;5007743;28;20515;-46
2023/09/16 05:04:26;;;;;;;0.40;0.20;;;;;;;13.60;100.00;100024.28;5008441;28;20516;-46
2023/09/16 05:06:53;;;;;;;0.40;0.20;;;;;;;13.61;100.00;100022.47;4999898;28;20457;-47
2023/09/16 05:09:22;;;;;;;0.40;0.20;;;;;;;13.72;100.00;100022.88;5004391;28;20477;-47
2023/09/16 05:11:49;;;;;;;0.40;0.20;;;;;;;13.51;100.00;100018.47;5007330;28;20529;-47
2023/09/16 05:14:16;;;;;;;0.40;0.20;;;;;;;13.60;100.00;100023.41;5003978;28;20523;-47
2023/09/16 05:16:42;;;;;;;0.40;0.20;;;;;;;13.61;100.00;100030.50;5000705;28;20548;-48
2023/09/16 05:19:09;;;;;;;0.40;0.20;;;;;;;13.66;100.00;100022.25;5003542;28;21103;-47
2023/09/16 05:21:35;;;;;;;0.40;0.20;;;;;;;13.70;100.00;100035.41;5010903;28;20459;-48
2023/09/16 05:24:02;;;;;;;0.40;0.23;;;;;;;13.60;100.00;100034.97;5003529;28;20446;-47
2023/09/16 05:26:28;;;;;;;0.40;0.20;;;;;;;13.63;100.00;100036.63;5007253;28;20473;-47
2023/09/16 05:28:56;;;;;;;0.40;0.20;;;;;;;13.75;100.00;100036.06;5004678;28;20648;-47
2023/09/16 05:31:26;;;;;;;0.40;0.20;;;;;;;13.81;100.00;100038.44;5000195;28;20458;-47
2023/09/16 05:33:52;;;;;;;0.40;0.20;;;;;;;13.90;100.00;100043.38;5002112;28;20532;-47
2023/09/16 05:36:20;;;;;;;0.40;0.20;;;;;;;13.93;100.00;100037.88;5011807;28;20471;-49
2023/09/16 05:38:47;;;;;;;0.40;0.20;;;;;;;13.79;100.00;100045.69;5001845;28;20551;-47
2023/09/16 05:41:13;;;;;;;0.40;0.20;;;;;;;13.85;100.00;100044.53;5006853;28;20453;-47
2023/09/16 05:43:40;;;;;;;0.40;0.20;;;;;;;13.97;100.00;100043.09;5005501;28;20508;-47
2023/09/16 05:46:07;;;;;;;0.40;0.20;;;;;;;14.16;100.00;100035.97;5000177;28;20934;-48
2023/09/16 05:48:33;;;;;;;0.40;0.20;;;;;;;14.22;100.00;100031.16;5001569;28;20449;-50
2023/09/16 05:51:00;;;;;;;0.40;0.20;;;;;;;14.35;100.00;100027.91;5012459;28;20472;-48
2023/09/16 05:53:27;;;;;;;0.40;0.20;;;;;;;14.50;100.00;100036.09;5010142;28;20523;-48
2023/09/16 05:55:53;;;;;;;0.40;0.20;;;;;;;14.68;100.00;100039.69;5016416;28;20966;-47
2023/09/16 05:58:20;;;;;;;0.40;0.20;;;;;;;14.67;100.00;100042.44;5012377;28;20548;-48
2023/09/16 06:00:54;;;;;;;0.40;0.20;;;;;;;14.66;100.00;100036.19;5001113;28;20454;-48
2023/09/16 06:03:21;;;;;;;0.40;0.20;;;;;;;14.91;100.00;100034.97;5005550;28;20467;-48
2023/09/16 06:05:48;;;;;;;0.40;0.20;;;;;;;15.06;100.00;100040.41;5000043;28;20459;-48
2023/09/16 06:08:14;;;;;;;0.40;0.20;;;;;;;15.03;100.00;100040.56;5002877;28;20953;-49
2023/09/16 06:10:41;;;;;;;0.40;0.20;;;;;;;15.19;100.00;100037.13;4999747;28;20488;-48
2023/09/16 06:13:07;;;;;;;0.40;0.20;;;;;;;15.31;100.00;100041.84;5009645;28;20547;-51
2023/09/16 06:15:34;;;;;;;0.40;0.20;;;;;;;15.35;100.00;100046.06;5000120;28;21081;-47
2023/09/16 06:18:00;;;;;;;0.40;0.20;;;;;;;15.44;100.00;100050.97;4997511;28;20879;-50
2023/09/16 06:20:27;;;;;;;0.40;0.20;;;;;;;15.60;100.00;100049.25;4999581;28;20468;-50
2023/09/16 06:22:53;;;;;;;0.40;0.20;;;;;;;15.56;100.00;100054.81;5012184;28;20452;-48
2023/09/16 06:25:20;;;;;;;0.40;0.20;;;;;;;15.68;100.00;100059.56;4994268;28;20457;-48
2023/09/16 06:27:46;;;;;;;0.40;0.20;;;;;;;15.74;100.00;100050.31;5005947;28;20463;-48
2023/09/16 06:30:13;;;;;;;0.40;0.20;;;;;;;15.88;99.90;100055.78;5001524;28;20543;-48
2023/09/16 06:32:39;;;;;;;0.40;0.20;;;;;;;15.76;100.00;100057.34;4999047;28;20460;-49
2023/09/16 06:35:06;;;;;;;0.40;0.20;;;;;;;15.79;100.00;100049.13;5005464;28;20496;-48
2023/09/16 06:37:32;;;;;;;0.40;0.20;;;;;;;15.83;100.00;100061.41;5005958;28;20485;-47
2023/09/16 06:39:59;;;;;;;0.40;0.20;;;;;;;16.01;100.00;100051.50;4993616;28;20564;-48
2023/09/16 06:42:25;;;;;;;0.40;0.20;;;;;;;16.01;100.00;100054.19;5006833;28;20456;-48
2023/09/16 06:44:54;;;;;;;0.83;0.83;;;;;;;16.15;100.00;100054.28;5007691;28;20460;-53
2023/09/16 06:47:26;;;;;;;0.40;0.20;;;;;;;16.22;100.00;100057.50;5009326;28;20494;-48
2023/09/16 06:49:54;;;;;;;0.40;0.20;;;;;;;16.22;100.00;100046.78;5000082;28;20564;-48
2023/09/16 06:52:26;;;;;;;0.40;0.30;;;;;;;16.28;100.00;100051.78;5009841;28;20789;-46
2023/09/16 06:54:53;;;;;;;0.40;0.20;;;;;;;16.45;100.00;100045.50;5017949;28;20518;-49
2023/09/16 06:57:20;;;;;;;0.40;0.20;;;;;;;16.57;100.00;100042.97;5008426;28;20449;-50
2023/09/16 06:59:49;;;;;;;0.40;0.20;;;;;;;16.55;100.00;100052.06;5003767;28;20468;-49
2023/09/16 07:02:16;;;;;;;0.40;0.20;;;;;;;16.48;100.00;100043.50;5005525;28;21017;-49
2023/09/16 07:04:45;;;;;;;0.40;0.20;;;;;;;16.55;100.00;100046.69;5001330;28;20451;-50
2023/09/16 07:07:12;;;;;;;0.40;0.20;;;;;;;16.85;100.00;100044.94;5005664;28;20498;-51
2023/09/16 07:09:39;;;;;;;0.40;0.20;;;;;;;16.92;99.58;100049.97;5004306;28;20512;-50
2023/09/16 07:12:06;;;;;;;0.40;0.20;;;;;;;17.33;98.15;100044.81;4999260;28;20813;-49
2023/09/16 07:14:37;;;;;;;0.40;0.20;;;;;;;17.35;97.93;100040.22;5000606;28;20493;-49
2023/09/16 07:17:04;;;;;;;0.40;0.20;;;;;;;17.53;98.24;100049.84;5005830;28;20882;-49
2023/09/16 07:19:31;;;;;;;0.40;0.20;;;;;;;17.87;97.30;100051.34;5005255;28;20555;-49
2023/09/16 07:21:58;;;;;;;0.40;0.20;;;;;;;17.58;96.80;100038.81;5008234;28;20904;-49
2023/09/16 07:24:25;;;;;;;0.40;0.20;;;;;;;17.63;97.50;100042.09;4999152;28;20477;-49
2023/09/16 07:26:51;;;;;;;0.40;0.20;;;;;;;17.74;98.33;100037.81;4999136;28;20543;-49
2023/09/16 07:29:19;;;;;;;0.40;0.20;;;;;;;17.76;97.91;100041.25;5000006;28;21012;-49
2023/09/16 07:31:45;;;;;;;0.40;0.20;;;;;;;17.87;98.14;100043.28;5008393;28;20453;-49
2023/09/16 07:34:12;;;;;;;0.40;0.20;;;;;;;17.89;97.30;100045.88;5009734;28;20835;-49
2023/09/16 07:36:38;;;;;;;0.40;0.20;;;;;;;18.22;95.80;100051.78;5003354;28;20855;-50
2023/09/16 07:39:05;;;;;;;0.40;0.20;;;;;;;18.20;95.66;100056.41;5002667;28;20484;-49
2023/09/16 07:41:31;;;;;;;0.40;0.20;;;;;;;18.61;94.71;100055.56;5008126;28;21018;-49
2023/09/16 07:43:57;;;;;;;0.40;0.20;;;;;;;18.49;94.09;100054.53;5008967;28;20543;-49
2023/09/16 07:46:24;;;;;;;0.40;0.20;;;;;;;18.85;93.37;100058.50;5003591;28;20946;-49
2023/09/16 07:48:50;;;;;;;0.40;0.30;;;;;;;18.78;91.87;100052.69;5002102;28;20560;-49
2023/09/16 07:51:17;;;;;;;0.40;0.20;;;;;;;18.67;92.28;100057.91;5015284;28;20433;-49
2023/09/16 07:53:44;;;;;;;0.40;0.20;;;;;;;19.02;92.12;100068.16;5002847;28;20459;-50
2023/09/16 07:56:10;;;;;;;0.40;0.20;;;;;;;19.05;92.04;100074.22;5022180;28;20455;-49
2023/09/16 07:58:37;;;;;;;0.40;0.20;;;;;;;19.47;91.43;100083.94;5001706;28;20443;-49
2023/09/16 08:01:03;;;;;;;0.40;0.20;;;;;;;19.12;90.73;100083.59;5008869;28;21001;-56
2023/09/16 08:03:31;;;;;;;0.40;0.20;;;;;;;19.19;90.46;100074.16;5013840;28;20459;-49
2023/09/16 08:05:59;;;;;;;0.40;0.20;;;;;;;19.44;89.48;100076.03;5003676;28;20483;-50
2023/09/16 08:08:25;;;;;;;0.40;0.20;;;;;;;19.35;90.08;100079.38;5001802;28;20424;-50
2023/09/16 08:10:52;;;;;;;0.40;0.20;;;;;;;19.72;89.89;100082.22;5006512;28;20469;-50
2023/09/16 08:13:18;;;;;;;0.40;0.20;;;;;;;19.66;90.29;100077.28;5008285;28;20969;-49
2023/09/16 08:15:45;;;;;;;0.40;0.20;;;;;;;19.98;90.06;100089.38;5004011;28;20492;-49
2023/09/16 08:18:11;;;;;;;0.43;0.20;;;;;;;20.13;88.84;100090.97;5001483;28;20463;-49
2023/09/16 08:20:38;;;;;;;0.50;0.20;;;;;;;19.94;87.53;100087.88;5011025;28;20512;-50
2023/09/16 08:23:04;;;;;;;0.97;0.97;;;;;;;20.19;87.30;100095.09;5012377;28;20956;-50
2023/09/16 08:25:31;;;;;;;0.40;0.20;;;;;;;20.38;86.38;100097.31;5004080;28;20518;-49
2023/09/16 08:27:57;;;;;;;1.37;1.37;;;;;;;20.71;85.78;100096.75;5001499;28;20536;-49
2023/09/16 08:30:25;;;;;;;0.47;0.30;;;;;;;20.58;86.09;100091.38;5005490;28;20469;-49
2023/09/16 08:32:51;;;;;;;0.40;0.20;;;;;;;20.86;86.17;100092.91;5007836;28;20515;-50
2023/09/16 08:35:18;;;;;;;0.40;0.20;;;;;;;20.87;86.19;100089.22;5004104;28;20492;-50
2023/09/16 08:37:44;;;;;;;0.40;0.20;;;;;;;21.08;85.52;100085.88;5001244;28;20428;-50
2023/09/16 08:40:11;;;;;;;0.40;0.20;;;;;;;21.06;85.68;100087.84;5004589;28;20484;-49
2023/09/16 08:42:41;;;;;;;0.40;0.20;;;;;;;21.38;85.49;100091.72;5006167;28;20459;-50
2023/09/16 08:45:14;;;;;;;0.40;0.20;;;;;;;21.53;84.29;100095.94;5004757;28;20423;-50
2023/09/16 08:47:44;;;;;;;0.50;0.40;;;;;;;21.75;84.97;100111.34;5001160;28;20427;-50
2023/09/16 08:50:11;;;;;;;0.50;0.20;;;;;;;21.76;83.29;100114.91;5004415;28;20824;-50
2023/09/16 08:52:46;;;;;;;0.50;0.20;;;;;;;21.68;83.75;100112.81;5009005;28;20540;-50
2023/09/16 08:55:13;;;;;;;0.50;0.20;;;;;;;21.98;82.64;100108.69;5015424;28;20454;-51
2023/09/16 08:57:49;;;;;;;0.50;0.30;;;;;;;21.93;82.20;100111.78;5007435;28;20943;-50
2023/09/16 09:00:16;;;;;;;0.40;0.20;;;;;;;22.39;82.13;100103.59;5007636;28;20443;-50
2023/09/16 09:02:43;;;;;;;0.50;0.30;;;;;;;22.53;81.38;100102.47;5009435;28;20474;-51
2023/09/16 09:05:11;;;;;;;0.50;0.20;;;;;;;22.38;80.68;100098.28;5000609;28;20453;-50
2023/09/16 09:07:41;;;;;;;0.50;0.20;;;;;;;22.63;79.51;100102.59;5005618;28;20516;-50
2023/09/16 09:10:11;;;;;;;0.40;0.20;;;;;;;22.42;80.23;100088.91;5007202;28;20473;-50
2023/09/16 09:12:41;;;;;;;0.50;0.20;;;;;;;22.32;80.04;100093.34;5004696;28;20473;-50
2023/09/16 09:15:13;;;;;;;0.50;0.20;;;;;;;22.69;79.02;100099.34;5000723;28;20473;-50
2023/09/16 09:17:45;;;;;;;0.50;0.20;;;;;;;22.66;78.98;100095.06;5002508;28;20450;-50
2023/09/16 09:20:20;;;;;;;0.50;0.20;;;;;;;22.98;79.66;100100.56;5008702;28;20516;-50
2023/09/16 09:22:49;;;;;;;0.50;0.20;;;;;;;23.13;80.29;100092.13;5013364;28;20480;-51
2023/09/16 09:25:20;;;;;;;0.50;0.20;;;;;;;23.03;78.26;100098.34;5001037;28;20931;-50
2023/09/16 09:27:49;;;;;;;0.50;0.20;;;;;;;23.47;78.55;100095.56;5000346;28;20428;-50
2023/09/16 09:30:15;;;;;;;0.50;0.20;;;;;;;23.60;78.72;100090.84;5005568;28;20473;-50
2023/09/16 09:32:45;;;;;;;0.60;0.60;;;;;;;23.50;78.25;100098.03;5007097;28;20423;-50
2023/09/16 09:35:13;;;;;;;0.50;0.30;;;;;;;23.70;77.14;100091.75;5002429;28;20484;-51
2023/09/16 09:37:40;;;;;;;0.50;0.20;;;;;;;23.62;77.62;100086.16;5000046;28;20524;-51
2023/09/16 09:40:11;;;;;;;0.50;0.20;;;;;;;23.63;76.64;100096.00;5004311;28;21013;-51
2023/09/16 09:42:40;;;;;;;0.50;0.20;;;;;;;23.53;76.93;100081.47;5006572;28;20421;-51
2023/09/16 09:45:10;;;;;;;0.50;0.20;;;;;;;23.72;77.29;100080.78;5004096;28;20495;-51
2023/09/16 09:47:37;;;;;;;0.50;0.30;;;;;;;23.45;77.61;100084.00;5000172;28;20448;-49
2023/09/16 09:50:05;;;;;;;0.50;0.23;;;;;;;23.63;77.71;100077.88;5002546;28;20858;-50
2023/09/16 09:52:31;;;;;;;0.93;0.93;;;;;;;23.94;77.17;100080.63;5008530;28;20517;-50
2023/09/16 09:54:58;;;;;;;0.50;0.20;;;;;;;24.01;76.51;100081.81;5011893;28;20484;-50
2023/09/16 09:57:27;;;;;;;0.50;0.20;;;;;;;23.78;76.89;100086.53;5008327;28;20464;-50
2023/09/16 09:59:55;;;;;;;0.50;0.20;;;;;;;23.97;77.91;100084.91;5004759;28;20443;-50
2023/09/16 10:02:26;;;;;;;0.50;0.20;;;;;;;24.00;76.67;100087.38;5006333;28;20435;-50
2023/09/16 10:05:05;;;;;;;0.47;0.20;;;;;;;23.75;76.61;100075.94;5000512;28;20890;-50
2023/09/16 10:07:32;;;;;;;0.50;0.30;;;;;;;24.19;75.61;100082.91;5000405;28;20429;-50
2023/09/16 10:09:58;;;;;;;0.50;0.20;;;;;;;24.22;75.55;100071.75;4999463;28;20539;-50
2023/09/16 10:12:25;;;;;;;0.50;0.20;;;;;;;24.67;74.63;100068.69;5005962;28;20453;-51
2023/09/16 10:14:52;;;;;;;0.50;0.30;;;;;;;24.52;74.95;100067.31;5005865;28;20499;-49
2023/09/16 10:17:19;;;;;;;0.50;0.20;;;;;;;24.56;73.99;100067.91;5001139;28;20455;-50
2023/09/16 10:19:46;;;;;;;0.50;0.20;;;;;;;24.57;74.09;100058.78;4999661;28;20535;-50
2023/09/16 10:22:13;;;;;;;0.50;0.20;;;;;;;24.79;74.58;100059.38;5012674;28;20451;-50
2023/09/16 10:24:43;;;;;;;0.50;0.20;;;;;;;24.92;74.27;100066.41;4999353;28;20977;-50
2023/09/16 10:27:22;;;;;;;0.50;0.30;;;;;;;24.85;73.56;100065.25;5004725;28;20453;-51
2023/09/16 10:29:49;;;;;;;0.50;0.20;;;;;;;25.02;73.49;100065.47;5005970;28;20476;-50
2023/09/16 10:32:16;;;;;;;0.50;0.30;;;;;;;25.11;73.47;100071.91;5003396;28;20904;-50
2023/09/16 10:34:46;;;;;;;0.93;0.57;;;;;;;25.31;71.88;100067.31;4999016;28;21038;-50
2023/09/16 10:37:18;;;;;;;0.50;0.30;;;;;;;25.40;72.41;100061.03;5001547;28;20958;-50
2023/09/16 10:39:46;;;;;;;0.50;0.30;;;;;;;24.79;73.50;100059.38;5005831;28;20466;-50
2023/09/16 10:42:18;;;;;;;0.50;0.20;;;;;;;24.93;73.25;100055.38;5005022;28;20983;-50
2023/09/16 10:44:48;;;;;;;0.50;0.20;;;;;;;25.06;72.84;100050.56;4999369;28;20848;-50
2023/09/16 10:47:16;;;;;;;0.50;0.23;;;;;;;25.03;72.49;100050.84;4999334;28;20453;-50
2023/09/16 10:49:46;;;;;;;0.50;0.30;;;;;;;25.43;72.49;100052.56;5004632;28;20540;-49
2023/09/16 10:52:17;;;;;;;0.50;0.40;;;;;;;25.54;71.80;100049.69;5008893;28;20942;-50
2023/09/16 10:55:03;;;;;;;0.50;0.30;;;;;;;25.55;71.95;100043.25;5009173;28;20483;-49
2023/09/16 10:57:54;;;;;;;0.50;0.30;;;;;;;25.89;71.08;100035.44;5007414;28;20464;-50
2023/09/16 11:00:22;;;;;;;0.50;0.30;;;;;;;25.78;70.78;100032.91;5005623;28;20555;-49
2023/09/16 11:02:56;;;;;;;0.50;0.30;;;;;;;26.03;70.64;100031.38;5007248;28;20946;-49
2023/09/16 11:05:23;;;;;;;0.50;0.27;;;;;;;25.82;70.39;100044.38;5002426;28;20470;-49
2023/09/16 11:07:49;;;;;;;0.50;0.20;;;;;;;25.62;70.95;100038.91;5005972;28;20460;-51
2023/09/16 11:10:16;;;;;;;0.50;0.30;;;;;;;25.99;69.95;100046.31;5009570;28;20469;-52
2023/09/16 11:12:43;;;;;;;0.50;0.20;;;;;;;26.10;70.28;100042.56;5006612;28;20456;-51
2023/09/16 11:15:10;;;;;;;0.50;0.27;;;;;;;26.19;70.46;100045.25;5003503;28;20494;-51
2023/09/16 11:17:41;;;;;;;0.50;0.30;;;;;;;26.25;70.53;100032.88;5005349;28;20939;-51
2023/09/16 11:20:24;;;;;;;0.50;0.30;;;;;;;26.34;68.69;100036.56;5014146;28;20491;-51
2023/09/16 11:22:50;;;;;;;0.50;0.30;;;;;;;25.88;68.85;100035.59;5015668;28;20419;-51